BGBW Airport Information

Runway Information
Runway 07 Length 6004 ft width 148 ft
Elevation 11 ft Threshold 0 ft Heading 41
Runway 25 Length 6004 ft Width 148 ft
Elevation 112 ft Threshold 0 ft Heading 221
Airport Frequencies
Type AFIS Name AFIS Frequency 119.1 MHZ
Airport Navaids
Type NDB Name Narsarsuaq Frequency 359 KHZ
Type DME Name Narsarsuaq Frequency 111850 KHZ
Airport Weather Information & NOTAM
ADDS - METARS form results

(0817 UTC 01 June 2020)
Data provider http://aviationweather.gov/metar/data/
 
METAR text: BGBW 010750Z AUTO 08003KT 9999NDV BKN055/// BKN070/// 08/02 Q1015
Conditions at: BGBW (NARSSARSSUAQ , GL) observed 0750 UTC 01 June 2020
Temperature: 8.0°C (46°F)
Dewpoint: 2.0°C (36°F) [RH = 66%]
Pressure (altimeter): 29.97 inches Hg (1015.0 mb)
Winds: from the E (80 degrees) at 3 MPH (3 knots; 1.5 m/s)
Visibility: missing
Ceiling: 5500 feet AGL
Clouds: broken clouds at 5500 feet AGL
broken clouds at 7000 feet AGL
Weather: no significant weather observed at this time